Latest Weather Observations for Casterton

IDV60801

Issued at 4:52 pm EST Sunday 11 April 2021 (issued every 10 minutes, with the page automatically refreshed every 10 minutes)

About weather observations | Map of weather stations | Latest weather observations for VIC | Other Formats
Station Details ID: 090182 Name: CASTERTON Lat: -37.58 Lon: 141.33 Height: 130.6 m
Data from the previous 72 hours. | See also: Recent months at Casterton
Date/Time
EST
Temp
°C
App
Temp
°C
Dew
Point
°C
Rel
Hum
%
Delta-T
°C
Wind Press
QNH
hPa
Press
MSL
hPa
Rain since
9am
mm
Dir  Spd
km/h
Gust
km/h
Spd
kts
Gust
kts
11/04:30pm 13.0 9.4 6.8 66 3.0 SSW 15 22 8 12 1021.6 1021.5 0.0
11/04:00pm 12.5 8.2 6.8 68 2.7 SSW 19 30 10 16 1021.5 1021.4 0.0
11/03:30pm 13.1 7.6 6.0 62 3.4 SSW 24 41 13 22 1021.2 1021.1 0.0
11/03:00pm 13.5 9.2 6.8 64 3.2 SW 19 28 10 15 1020.8 1020.7 0.0
11/02:30pm 13.3 8.2 6.2 62 3.4 SW 22 39 12 21 1020.5 1020.4 0.0
11/02:00pm 14.0 7.9 6.4 60 3.7 SSW 28 39 15 21 1020.4 1020.3 0.0
11/01:30pm 13.6 8.1 6.0 60 3.6 SSW 24 37 13 20 1020.4 1020.3 0.0
11/01:15pm 13.2 6.8 5.1 58 3.8 SSW 28 48 15 26 1020.5 1020.4 0.0
11/01:00pm 13.5 7.5 5.4 58 3.8 SSW 26 43 14 23 1020.4 1020.3 0.0
11/12:46pm 13.6 7.3 5.5 58 3.8 SW 28 46 15 25 1020.5 1020.4 0.0
11/12:30pm 14.1 7.5 4.4 52 4.5 SSW 28 41 15 22 1020.5 1020.4 0.0
11/12:05pm 13.2 6.3 4.4 55 4.1 SSW 30 50 16 27 1020.5 1020.4 0.0
11/12:00pm 13.5 6.2 4.6 55 4.1 SSW 32 44 17 24 1020.5 1020.4 0.0
11/11:30am 12.5 6.2 5.7 63 3.2 SSW 28 44 15 24 1020.4 1020.3 0.0
11/11:22am 11.9 5.9 7.2 73 2.3 SSW 28 46 15 25 1020.4 1020.3 0.0
11/11:00am 13.3 7.7 7.3 67 2.9 SSW 26 39 14 21 1020.0 1019.9 0.0
11/10:45am 12.4 6.2 6.2 66 2.9 SSW 28 46 15 25 1020.2 1020.1 0.0
11/10:30am 12.5 6.9 7.0 69 2.7 SSW 26 44 14 24 1020.2 1020.1 0.0
11/10:00am 12.2 7.5 7.7 74 2.2 SW 22 35 12 19 1019.9 1019.8 0.0
11/09:30am 10.4 4.9 7.6 83 1.4 SSW 26 43 14 23 1020.0 1019.9 0.0
11/09:00am 10.3 6.2 7.7 84 1.3 SW 19 24 10 13 1019.3 1019.2 3.2
11/08:30am 9.8 7.2 9.2 96 0.3 SW 13 20 7 11 1018.9 1018.8 3.2
11/08:00am 8.8 6.0 8.7 99 0.0 SW 13 19 7 10 1018.6 1018.5 3.2
11/07:30am 8.1 5.2 8.0 99 0.0 SW 13 17 7 9 1018.3 1018.2 3.2
11/07:00am 7.5 4.7 6.9 96 0.3 WSW 11 15 6 8 1017.9 1017.8 3.0
11/06:30am 7.6 4.6 6.2 91 0.6 WSW 11 19 6 10 1017.3 1017.2 3.0
11/06:00am 7.4 4.4 6.2 92 0.5 W 11 13 6 7 1017.1 1017.0 3.0
11/05:30am 8.0 4.2 6.0 87 0.9 SW 15 22 8 12 1016.5 1016.4 3.0
11/05:00am 7.7 3.7 5.0 83 1.2 WSW 15 20 8 11 1016.2 1016.1 3.0
11/04:30am 7.5 3.8 4.5 81 1.3 WSW 13 15 7 8 1015.9 1015.8 3.0
11/04:00am 7.0 3.7 4.7 85 1.0 WSW 11 15 6 8 1015.5 1015.4 3.0
11/03:30am 7.3 3.8 5.6 89 0.8 WSW 13 17 7 9 1015.3 1015.2 3.0
11/03:00am 7.4 3.9 7.1 98 0.1 W 15 19 8 10 1015.3 1015.2 3.0
11/02:30am 7.1 3.9 6.8 98 0.1 W 13 17 7 9 1015.3 1015.2 3.0
11/02:00am 7.7 4.4 6.6 93 0.5 WSW 13 20 7 11 1015.3 1015.2 3.0
11/01:30am 7.7 3.9 7.6 99 0.0 SW 17 28 9 15 1015.1 1015.0 3.0
11/01:00am 6.5 3.2 6.4 99 0.0 W 13 15 7 8 1014.9 1014.8 2.8
11/12:30am 7.3 4.2 7.2 99 0.0 WSW 13 19 7 10 1015.0 1014.9 2.8
11/12:00am 7.6 4.2 7.5 99 0.0 WSW 15 20 8 11 1014.7 1014.6 2.8
 
Date/Time
EST
Temp
°C
App
Temp
°C
Dew
Point
°C
Rel
Hum
%
Delta-T
°C
Wind Press
QNH
hPa
Press
MSL
hPa
Rain since
9am
mm
Dir  Spd
km/h
Gust
km/h
Spd
kts
Gust
kts
10/11:30pm 7.6 3.4 7.5 99 0.0 WSW 19 26 10 14 1014.7 1014.6 2.8
10/11:16pm 7.9 2.1 7.8 99 0.0 WSW 28 44 15 24 1014.8 1014.7 2.8
10/11:00pm 7.5 4.0 7.4 99 0.0 W 15 22 8 12 1014.6 1014.5 2.8
10/10:30pm 7.6 4.6 7.5 99 0.0 WSW 13 19 7 10 1014.3 1014.2 2.8
10/10:00pm 8.3 3.7 8.2 99 0.0 WSW 22 32 12 17 1014.2 1014.1 2.6
10/09:44pm 8.7 3.0 8.4 98 0.1 WSW 28 48 15 26 1014.1 1014.0 2.6
10/09:30pm 8.7 4.6 8.6 99 0.0 WSW 20 35 11 19 1014.1 1014.0 2.4
10/09:00pm 9.0 5.0 8.9 99 0.0 WSW 20 32 11 17 1013.7 1013.6 2.2
10/08:30pm 9.3 5.9 9.2 99 0.0 WSW 17 35 9 19 1013.6 1013.5 2.0
10/08:00pm 9.5 5.6 8.7 95 0.4 WSW 19 32 10 17 1013.1 1012.9 1.6
10/07:30pm 9.5 6.3 8.6 94 0.4 W 15 20 8 11 1012.8 1012.6 1.6
10/07:00pm 9.2 5.6 8.3 94 0.4 W 17 26 9 14 1012.7 1012.5 1.6
10/06:30pm 10.0 5.7 9.2 95 0.4 W 22 33 12 18 1012.5 1012.3 1.6
10/06:00pm 10.2 7.4 9.9 98 0.2 WSW 15 20 8 11 1012.1 1011.9 1.4
10/05:30pm 10.6 7.2 10.4 99 0.1 WSW 19 28 10 15 1012.1 1011.9 1.4
10/05:00pm 11.3 8.4 11.1 99 0.1 W 17 24 9 13 1011.8 1011.7 1.2
10/04:30pm 10.1 6.5 9.8 98 0.2 WSW 19 26 10 14 1012.1 1011.9 1.2
10/04:13pm 10.9 5.1 8.1 83 1.4 W 28 46 15 25 1012.0 1011.8 0.4
10/04:00pm 11.9 7.2 7.8 76 2.0 WSW 22 39 12 21 1011.5 1011.4 0.4
10/03:39pm 12.5 6.6 7.6 72 2.4 WSW 28 46 15 25 1011.2 1011.1 0.4
10/03:30pm 12.8 7.9 8.3 74 2.2 WSW 24 39 13 21 1011.3 1011.2 0.4
10/03:02pm 11.5 4.2 7.4 76 2.0 SW 35 63 19 34 1011.4 1011.3 0.4
10/03:00pm 11.8 4.9 7.1 73 2.3 SW 33 63 18 34 1011.3 1011.2 0.4
10/02:58pm 13.4 7.3 6.7 64 3.2 WSW 28 57 15 31 1011.2 1011.1 0.4
10/02:30pm 13.9 8.7 7.2 64 3.3 WSW 24 41 13 22 1010.9 1010.8 0.2
10/02:00pm 13.0 7.3 8.3 73 2.4 WSW 28 44 15 24 1011.2 1011.1 0.0
10/01:30pm 14.9 8.2 5.4 53 4.5 SW 30 48 16 26 1010.9 1010.8 0.0
10/01:00pm 15.4 7.9 4.5 48 5.1 WSW 33 52 18 28 1011.0 1010.9 0.0
10/12:30pm 15.6 8.7 7.4 58 4.1 WSW 33 52 18 28 1011.3 1011.2 0.0
10/12:16pm 14.2 7.2 6.8 61 3.6 SW 33 52 18 28 1011.3 1011.2 0.0
10/12:00pm 15.7 8.8 6.4 54 4.6 WSW 32 44 17 24 1011.1 1011.0 0.0
10/11:42am 15.1 8.4 5.6 53 4.6 WSW 30 48 16 26 1011.1 1011.0 0.0
10/11:30am 15.0 8.2 7.1 59 3.9 SW 32 46 17 25 1011.0 1010.9 0.0
10/11:06am 15.3 9.4 7.6 60 3.9 SW 28 46 15 25 1011.0 1010.9 0.0
10/11:00am 15.6 9.0 7.9 60 3.9 SW 32 46 17 25 1011.0 1010.9 0.0
10/10:51am 14.9 8.8 6.5 57 4.1 WSW 28 46 15 25 1011.0 1010.9 0.0
10/10:30am 15.1 9.1 6.9 58 4.0 WSW 28 44 15 24 1010.9 1010.8 0.0
10/10:20am 14.5 8.6 7.3 62 3.6 SW 28 46 15 25 1010.9 1010.8 0.0
10/10:00am 14.0 9.5 8.4 69 2.8 WSW 22 33 12 18 1010.9 1010.8 0.0
10/09:30am 13.0 9.2 11.2 89 1.0 WSW 22 37 12 20 1010.8 1010.7 0.0
10/09:00am 12.5 9.7 12.5 100 0.0 WSW 19 30 10 16 1010.4 1010.3 1.8
10/08:30am 11.9 8.3 11.9 100 0.0 SW 22 32 12 17 1010.1 1010.0 1.8
10/08:00am 11.7 9.0 11.7 100 0.0 W 17 24 9 13 1009.6 1009.5 1.6
10/07:30am 11.4 9.0 11.4 100 0.0 WNW 15 20 8 11 1009.4 1009.3 1.2
10/07:00am 11.0 8.9 11.0 100 0.0 WNW 13 17 7 9 1008.9 1008.8 1.2
10/06:30am 11.2 9.1 11.2 100 0.0 WNW 13 20 7 11 1008.9 1008.8 1.2
10/06:00am 11.5 8.7 11.5 100 0.0 WNW 17 20 9 11 1008.7 1008.6 1.2
10/05:30am 11.3 8.9 11.3 100 0.0 WNW 15 20 8 11 1008.7 1008.6 1.0
10/05:00am 11.1 8.6 11.1 100 0.0 WNW 15 22 8 12 1008.4 1008.3 1.0
10/04:30am 10.8 8.2 10.8 100 0.0 WNW 15 20 8 11 1008.6 1008.5 1.0
10/04:00am 11.1 9.0 11.1 100 0.0 WNW 13 20 7 11 1008.7 1008.6 0.8
10/03:30am 10.9 8.7 10.9 100 0.0 WNW 13 17 7 9 1008.9 1008.8 0.8
10/03:00am 10.9 8.7 10.9 100 0.0 WNW 13 20 7 11 1009.2 1009.1 0.8
10/02:30am 10.9 8.4 10.9 100 0.0 WNW 15 20 8 11 1009.5 1009.4 0.8
10/02:00am 10.9 9.1 10.9 100 0.0 WNW 11 15 6 8 1009.5 1009.4 0.8
10/01:30am 10.6 9.1 10.6 100 0.0 NW 9 13 5 7 1009.7 1009.6 0.8
10/01:00am 10.6 9.1 10.6 100 0.0 NW 9 13 5 7 1009.8 1009.7 0.8
10/12:30am 10.6 9.1 10.6 100 0.0 NW 9 13 5 7 1010.1 1010.0 0.8
10/12:00am 10.4 8.9 10.4 100 0.0 WNW 9 13 5 7 1010.5 1010.4 0.8
 
Date/Time
EST
Temp
°C
App
Temp
°C
Dew
Point
°C
Rel
Hum
%
Delta-T
°C
Wind Press
QNH
hPa
Press
MSL
hPa
Rain since
9am
mm
Dir  Spd
km/h
Gust
km/h
Spd
kts
Gust
kts
09/11:30pm 10.7 9.2 10.7 100 0.0 W 9 13 5 7 1010.6 1010.5 0.8
09/11:00pm 10.3 8.3 10.3 100 0.0 WNW 11 17 6 9 1011.2 1011.1 0.6
09/10:30pm 9.0 7.1 9.0 100 0.0 WNW 9 11 5 6 1011.2 1011.1 0.6
09/10:00pm 10.2 8.9 10.1 99 0.1 NW 7 9 4 5 1011.2 1011.1 0.6
09/09:30pm 10.9 10.8 10.7 99 0.1 SSW 2 7 1 4 1011.2 1011.1 0.6
09/09:00pm 11.0 8.0 10.8 99 0.1 WSW 17 24 9 13 1011.5 1011.4 0.6
09/08:30pm 11.9 9.4 9.8 87 1.1 WSW 13 17 7 9 1011.3 1011.2 0.6
09/08:00pm 12.5 10.4 8.4 76 2.0 W 9 11 5 6 1011.1 1011.0 0.6
09/07:30pm 12.8 11.2 8.1 73 2.3 SW 6 9 3 5 1010.9 1010.8 0.6
09/07:00pm 12.9 11.1 7.8 71 2.5 WSW 7 9 4 5 1010.7 1010.6 0.6
09/06:30pm 13.5 11.3 7.7 68 2.9 SW 9 15 5 8 1010.6 1010.5 0.6
09/06:00pm 13.7 10.3 7.7 67 3.0 SW 15 22 8 12 1010.3 1010.2 0.6
09/05:30pm 14.5 11.2 8.0 65 3.3 SW 15 20 8 11 1010.4 1010.3 0.6
09/05:00pm 15.0 11.4 8.3 64 3.4 SSW 17 24 9 13 1010.3 1010.2 0.6
09/04:30pm 15.8 12.3 7.1 56 4.3 SW 15 20 8 11 1010.2 1010.1 0.6
09/04:00pm 16.6 12.9 7.8 56 4.5 SW 17 26 9 14 1010.2 1010.1 0.6
09/03:30pm 16.6 12.8 7.5 55 4.6 SW 17 26 9 14 1010.2 1010.1 0.6
09/03:00pm 16.7 12.5 7.6 55 4.6 SSW 19 26 10 14 1010.2 1010.1 0.6
09/02:30pm 16.7 12.9 7.4 54 4.7 WSW 17 24 9 13 1010.3 1010.2 0.6
09/02:00pm 17.0 12.8 8.4 57 4.4 SW 20 30 11 16 1010.7 1010.6 0.6
09/01:30pm 16.0 11.7 8.0 59 4.1 SW 20 28 11 15 1011.1 1011.0 0.6
09/01:00pm 16.5 12.8 8.0 57 4.3 W 17 33 9 18 1011.1 1011.0 0.6
09/12:30pm 15.5 11.6 8.7 64 3.5 SSW 19 30 10 16 1011.5 1011.4 0.6
09/12:00pm 15.8 13.5 11.8 77 2.2 SSW 15 26 8 14 1011.7 1011.6 0.6
09/11:30am 13.0 11.4 11.6 91 0.7 SSW 11 17 6 9 1012.0 1011.8 0.6
09/11:00am 14.6 11.7 11.0 79 1.9 SSW 17 26 9 14 1011.8 1011.7 0.4
09/10:30am 13.7 11.3 11.4 86 1.2 SW 15 20 8 11 1012.1 1011.9 0.4
09/10:00am 12.4 9.9 12.2 99 0.1 SSW 17 24 9 13 1012.2 1012.0 0.4
09/09:30am 13.6 11.7 11.7 88 1.0 WSW 13 20 7 11 1011.8 1011.7 0.0
09/09:00am 12.6 11.0 11.5 93 0.6 W 11 17 6 9 1011.5 1011.4 5.8
09/08:30am 12.0 10.4 11.4 96 0.3 W 11 15 6 8 1011.2 1011.1 5.8
09/08:00am 11.4 10.1 11.2 99 0.1 WSW 9 11 5 6 1011.0 1010.9 5.8
09/07:30am 10.9 9.1 10.7 99 0.1 W 11 15 6 8 1010.6 1010.5 5.8
09/07:00am 10.6 9.1 10.6 100 0.0 W 9 15 5 8 1010.2 1010.1 5.8
09/06:30am 10.7 9.2 10.7 100 0.0 W 9 11 5 6 1010.0 1009.9 5.8
09/06:00am 10.7 9.2 10.7 100 0.0 WSW 9 13 5 7 1009.9 1009.8 5.8
09/05:30am 10.8 9.4 10.8 100 0.0 WSW 9 11 5 6 1009.7 1009.6 5.8
09/05:00am 10.1 8.5 10.1 100 0.0 WSW 9 11 5 6 1009.5 1009.4 5.8
09/04:30am 10.8 9.4 10.8 100 0.0 W 9 11 5 6 1009.4 1009.3 5.8
09/04:00am 10.8 9.9 10.8 100 0.0 W 6 9 3 5 1009.2 1009.1 5.8
09/03:30am 11.0 9.6 11.0 100 0.0 WSW 9 11 5 6 1009.1 1009.0 5.8
09/03:00am 11.9 10.8 11.9 100 0.0 SW 9 13 5 7 1009.1 1009.0 5.8
09/02:30am 12.3 10.9 12.3 100 0.0 SW 11 15 6 8 1008.9 1008.8 5.8
09/02:00am 12.8 11.6 12.8 100 0.0 SW 11 15 6 8 1008.9 1008.8 5.6
09/01:30am 13.0 10.7 13.0 100 0.0 SSW 17 26 9 14 1009.0 1008.9 5.6
09/01:00am 13.2 11.4 13.2 100 0.0 SSW 15 22 8 12 1008.8 1008.7 5.6
09/12:30am 13.3 11.5 13.3 100 0.0 SSW 15 24 8 13 1008.7 1008.6 5.4
09/12:00am 13.4 10.9 13.4 100 0.0 SSW 19 28 10 15 1008.6 1008.5 5.2
 
Date/Time
EST
Temp
°C
App
Temp
°C
Dew
Point
°C
Rel
Hum
%
Delta-T
°C
Wind Press
QNH
hPa
Press
MSL
hPa
Rain since
9am
mm
Dir  Spd
km/h
Gust
km/h
Spd
kts
Gust
kts
08/11:30pm 14.2 11.0 14.2 100 0.0 SW 24 39 13 21 1008.4 1008.3 4.4
08/11:00pm 15.0 13.4 15.0 100 0.0 WSW 17 22 9 12 1008.0 1007.9 3.8
08/10:30pm 15.4 13.6 15.4 100 0.0 W 19 26 10 14 1007.8 1007.7 2.6
08/10:00pm 16.3 16.3 16.3 100 0.0 W 11 17 6 9 1007.5 1007.4 1.6
08/09:30pm 16.7 17.2 16.5 99 0.1 W 9 13 5 7 1007.1 1007.0 0.4
08/09:00pm 16.7 16.9 15.7 94 0.6 WSW 9 13 5 7 1007.1 1007.0 0.0
08/08:30pm 16.6 18.2 15.0 90 0.9 CALM 0 2 0 1 1007.1 1007.0 0.0
08/08:00pm 16.9 17.2 14.4 85 1.4 N 6 7 3 4 1006.7 1006.6 0.0
08/07:30pm 17.7 18.3 14.2 80 2.0 W 4 7 2 4 1006.7 1006.6 0.0
08/07:00pm 18.3 17.9 14.0 76 2.5 W 9 11 5 6 1007.1 1007.0 0.0
08/06:30pm 18.7 17.4 13.8 73 2.8 WSW 13 19 7 10 1006.9 1006.8 0.0
08/06:00pm 19.2 17.4 13.4 69 3.3 WSW 15 20 8 11 1006.5 1006.3 0.0
08/05:30pm 20.4 17.0 11.3 56 5.0 WSW 20 28 11 15 1006.5 1006.3 0.0
08/05:00pm 22.4 17.1 6.6 36 8.1 W 24 37 13 20 1006.3 1006.1 0.0

Other formats

Comma delimited format used in spreadsheet applications
http://www.bom.gov.au/fwo/IDV60801/IDV60801.95825.axf

JavaScript Object Notation format (JSON) in row-major order
http://www.bom.gov.au/fwo/IDV60801/IDV60801.95825.json

Data quality

Most of these data are generated automatically and are frequently updated. Quality checks on data are not normally performed. It is possible for incorrect values to appear. Refer to information at About Latest Weather Observations and please check the disclaimer before using these data.